Time;durP1;ratioP1;P1;durP2;ratioP2;P2;SDS_P1;SDS_P2;PMS_P1;PMS_P2;Temp;Humidity;BMP_temperature;BMP_pressure;BME280_temperature;BME280_humidity;BME280_pressure;Samples;Min_cycle;Max_cycle;Signal;HPM_P1;HPM_P2
2021/03/25 00:00:07;;;;;;;6.30;1.75;;;7.50;99.90;;;;;;5033879;28;20488;-84
2021/03/25 00:02:34;;;;;;;8.05;1.75;;;7.60;99.90;;;;;;5034256;28;20050;-85
2021/03/25 00:05:00;;;;;;;6.40;2.03;;;7.60;99.90;;;;;;5033887;28;20060;-84
2021/03/25 00:07:27;;;;;;;5.78;2.28;;;7.60;99.90;;;;;;5034093;28;20050;-85
2021/03/25 00:09:54;;;;;;;9.55;1.60;;;7.60;99.90;;;;;;5034202;28;20360;-86
2021/03/25 00:12:21;;;;;;;6.57;1.58;;;7.60;99.90;;;;;;5034040;28;20063;-86
2021/03/25 00:14:47;;;;;;;3.78;1.23;;;7.60;99.90;;;;;;5035653;28;20064;-84
2021/03/25 00:17:15;;;;;;;11.43;1.52;;;7.60;99.90;;;;;;5037284;28;20110;-85
2021/03/25 00:19:41;;;;;;;8.57;1.60;;;7.60;99.90;;;;;;5037239;28;20059;-84
2021/03/25 00:22:08;;;;;;;14.10;2.38;;;7.70;99.90;;;;;;5037170;28;20084;-85
2021/03/25 00:24:35;;;;;;;10.02;1.33;;;7.70;99.90;;;;;;5036655;28;20095;-84
2021/03/25 00:27:01;;;;;;;9.60;1.95;;;7.70;99.90;;;;;;5036767;28;20052;-85
2021/03/25 00:29:28;;;;;;;6.35;1.65;;;7.70;99.90;;;;;;5037152;28;20041;-85
2021/03/25 00:31:54;;;;;;;11.32;2.10;;;7.60;99.90;;;;;;5037065;28;20140;-86
2021/03/25 00:34:22;;;;;;;8.70;1.63;;;7.70;99.90;;;;;;5037229;28;20126;-86
2021/03/25 00:36:48;;;;;;;15.38;2.97;;;7.70;99.90;;;;;;5037075;28;20049;-85
2021/03/25 00:39:15;;;;;;;7.75;0.98;;;7.80;99.90;;;;;;5036551;28;20045;-87
2021/03/25 00:41:41;;;;;;;11.15;1.30;;;7.80;99.90;;;;;;5037064;28;20433;-86
2021/03/25 00:44:08;;;;;;;4.95;1.35;;;7.80;99.90;;;;;;5036003;28;20082;-86
2021/03/25 00:46:35;;;;;;;5.70;1.38;;;7.80;99.90;;;;;;5036708;28;20053;-87
2021/03/25 00:49:02;;;;;;;5.13;1.20;;;7.90;99.90;;;;;;5036846;28;20041;-86
2021/03/25 00:51:29;;;;;;;6.88;1.20;;;7.90;99.90;;;;;;5036576;28;20056;-86
2021/03/25 00:53:56;;;;;;;4.95;1.35;;;7.90;99.90;;;;;;5036499;28;20059;-86
2021/03/25 00:56:22;;;;;;;9.05;1.40;;;7.90;99.90;;;;;;5036539;28;20482;-88
2021/03/25 00:58:49;;;;;;;11.80;1.55;;;7.90;99.90;;;;;;5036465;28;20049;-87
2021/03/25 01:01:15;;;;;;;5.65;1.80;;;7.90;99.90;;;;;;5036446;28;20049;-87
2021/03/25 01:03:42;;;;;;;11.30;1.25;;;7.90;99.90;;;;;;5036428;28;20067;-87
2021/03/25 01:06:09;;;;;;;5.63;2.08;;;7.90;99.90;;;;;;5036582;28;20064;-88
2021/03/25 01:08:36;;;;;;;8.60;1.25;;;7.90;99.90;;;;;;5036235;28;20059;-88
2021/03/25 01:11:06;;;;;;;3.13;1.75;;;7.90;99.90;;;;;;5036506;28;20049;-87
2021/03/25 01:13:34;;;;;;;1.92;0.93;;;7.90;99.90;;;;;;5036225;28;20059;-87
2021/03/25 01:16:01;;;;;;;9.15;1.50;;;7.90;99.90;;;;;;5036399;28;20059;-86
2021/03/25 01:18:28;;;;;;;6.80;1.55;;;7.90;99.90;;;;;;5036015;28;20151;-87
2021/03/25 01:20:55;;;;;;;7.75;1.40;;;;;;;;;;5036343;28;20049;-87
2021/03/25 01:23:21;;;;;;;4.65;1.70;;;7.80;99.90;;;;;;5036165;28;20110;-88
2021/03/25 01:25:49;;;;;;;4.40;0.95;;;;;;;;;;5035158;28;20045;-86
2021/03/25 01:28:16;;;;;;;11.60;1.60;;;7.80;99.90;;;;;;5035730;28;20049;-87
2021/03/25 01:30:43;;;;;;;5.53;1.15;;;7.80;99.90;;;;;;5035864;28;20049;-86
2021/03/25 01:33:10;;;;;;;5.57;1.52;;;;;;;;;;5035795;28;20413;-87
2021/03/25 01:35:38;;;;;;;8.77;1.10;;;7.90;99.90;;;;;;5035705;28;20061;-86
2021/03/25 01:38:05;;;;;;;7.47;1.25;;;7.90;99.90;;;;;;5036153;28;20049;-87
2021/03/25 01:40:33;;;;;;;12.00;1.20;;;7.90;99.90;;;;;;5035498;28;20055;-87
2021/03/25 01:43:08;;;;;;;5.20;1.00;;;;;;;;;;5035888;28;20057;-86
2021/03/25 01:45:49;;;;;;;;;;;7.90;99.90;;;;;;5036052;28;20045;-88
2021/03/25 01:48:16;;;;;;;7.32;0.98;;;7.90;99.90;;;;;;5033177;28;19940;-86
2021/03/25 01:50:42;;;;;;;9.10;1.98;;;7.90;99.90;;;;;;5035439;28;20470;-87
2021/03/25 01:53:34;;;;;;;6.93;1.58;;;7.80;99.90;;;;;;5035391;28;20049;-87
2021/03/25 01:56:02;;;;;;;4.68;1.13;;;7.80;99.90;;;;;;5035031;28;20053;-87
2021/03/25 01:59:03;;;;;;;5.80;1.05;;;7.80;99.90;;;;;;5035561;28;20102;-87
2021/03/25 02:01:32;;;;;;;5.28;1.25;;;7.80;99.90;;;;;;4994279;28;20049;-87
2021/03/25 02:04:20;;;;;;;7.28;1.20;;;7.80;99.90;;;;;;5035255;28;20054;-86
2021/03/25 02:06:51;;;;;;;4.05;1.20;;;7.80;99.90;;;;;;5028186;28;20085;-86
2021/03/25 02:09:20;;;;;;;5.47;1.02;;;7.80;99.90;;;;;;5035419;28;20050;-87
2021/03/25 02:11:51;;;;;;;7.43;1.27;;;7.90;99.90;;;;;;5035201;28;20065;-86
2021/03/25 02:14:20;;;;;;;8.60;1.73;;;7.80;99.90;;;;;;5035383;28;20063;-86
2021/03/25 02:16:53;;;;;;;13.90;1.98;;;7.80;99.90;;;;;;5035060;28;20057;-87
2021/03/25 02:19:30;;;;;;;4.72;1.08;;;7.80;99.90;;;;;;5034784;28;20067;-86
2021/03/25 02:22:32;;;;;;;6.75;1.83;;;7.80;99.90;;;;;;5035077;28;20061;-85
2021/03/25 02:24:59;;;;;;;5.95;1.77;;;7.80;99.90;;;;;;5030371;28;20056;-86
2021/03/25 02:27:45;;;;;;;4.10;1.30;;;7.80;99.90;;;;;;5035180;28;20064;-87
2021/03/25 02:30:14;;;;;;;4.00;1.05;;;7.80;99.90;;;;;;5035150;28;20045;-85
2021/03/25 02:32:46;;;;;;;3.95;1.17;;;7.80;99.90;;;;;;5035067;28;20060;-85
2021/03/25 02:35:16;;;;;;;7.80;1.27;;;7.70;99.90;;;;;;5034809;28;20130;-84
2021/03/25 02:37:44;;;;;;;12.88;1.42;;;7.70;99.90;;;;;;5035014;28;20057;-84
2021/03/25 02:40:12;;;;;;;6.03;1.30;;;7.70;99.90;;;;;;5034518;28;20477;-84
2021/03/25 02:42:44;;;;;;;10.23;1.08;;;7.70;99.90;;;;;;5034891;28;20118;-85
2021/03/25 02:45:13;;;;;;;9.07;1.42;;;7.70;99.90;;;;;;5034686;28;20045;-85
2021/03/25 02:47:41;;;;;;;12.15;2.00;;;7.70;99.90;;;;;;5034638;28;20053;-85
2021/03/25 02:50:11;;;;;;;8.70;1.98;;;7.70;99.90;;;;;;5031710;28;20052;-85
2021/03/25 02:52:40;;;;;;;6.95;1.02;;;7.70;99.90;;;;;;5024691;28;20045;-84
2021/03/25 02:55:08;;;;;;;10.00;1.50;;;7.70;99.90;;;;;;5034396;28;20450;-84
2021/03/25 02:57:39;;;;;;;7.53;1.92;;;7.60;99.90;;;;;;5034482;28;20049;-85
2021/03/25 03:00:09;;;;;;;2.58;1.05;;;7.60;99.90;;;;;;5034283;28;20041;-84
2021/03/25 03:02:38;;;;;;;9.05;1.58;;;7.60;99.90;;;;;;5034748;28;20057;-85
2021/03/25 03:05:09;;;;;;;15.93;1.95;;;7.70;99.90;;;;;;5034293;28;20060;-85
2021/03/25 03:07:37;;;;;;;3.22;0.93;;;7.70;99.90;;;;;;5034992;28;20052;-85
2021/03/25 03:10:06;;;;;;;5.47;1.25;;;7.70;99.90;;;;;;5034324;28;20046;-86
2021/03/25 03:12:35;;;;;;;8.32;1.48;;;7.70;99.90;;;;;;5034394;28;20159;-84
2021/03/25 03:15:05;;;;;;;8.35;0.93;;;7.60;99.90;;;;;;5034307;28;20049;-84
2021/03/25 03:17:32;;;;;;;8.35;1.08;;;7.70;99.90;;;;;;5034009;28;20045;-84
2021/03/25 03:20:01;;;;;;;5.82;0.98;;;7.60;99.90;;;;;;5034164;28;20052;-85
2021/03/25 03:22:29;;;;;;;4.43;1.05;;;7.60;99.90;;;;;;5033987;28;20067;-85
2021/03/25 03:24:55;;;;;;;3.65;1.00;;;7.60;99.90;;;;;;5034667;28;20367;-85
2021/03/25 03:27:22;;;;;;;11.43;1.77;;;7.60;99.90;;;;;;5034220;28;20060;-84
2021/03/25 03:29:49;;;;;;;6.93;1.48;;;7.60;99.90;;;;;;5034637;28;20050;-85
2021/03/25 03:32:20;;;;;;;4.38;1.08;;;7.60;99.90;;;;;;5034431;28;20053;-85
2021/03/25 03:34:47;;;;;;;7.28;1.02;;;7.70;99.90;;;;;;5034442;28;20057;-84
2021/03/25 03:37:18;;;;;;;3.42;1.30;;;7.70;99.90;;;;;;5034076;28;20115;-85
2021/03/25 03:39:46;;;;;;;7.55;1.50;;;;;;;;;;5034020;28;20046;-85
2021/03/25 03:42:14;;;;;;;2.38;1.15;;;7.70;99.90;;;;;;5034287;28;20123;-85
2021/03/25 03:44:41;;;;;;;7.30;1.05;;;7.70;99.90;;;;;;5034047;28;20045;-86
2021/03/25 03:47:09;;;;;;;6.15;1.33;;;7.70;99.90;;;;;;5034234;28;20049;-84
2021/03/25 03:49:37;;;;;;;6.72;0.90;;;7.80;99.90;;;;;;5035867;28;20049;-83
2021/03/25 03:52:05;;;;;;;6.97;1.08;;;7.80;99.90;;;;;;5037704;28;20071;-86
2021/03/25 03:54:32;;;;;;;6.70;3.05;;;7.80;99.90;;;;;;5037671;28;20050;-86
2021/03/25 03:57:01;;;;;;;5.03;1.15;;;7.80;99.90;;;;;;5037631;28;20110;-86
2021/03/25 03:59:32;;;;;;;5.40;0.98;;;7.70;99.90;;;;;;5037451;28;20484;-85
2021/03/25 04:02:01;;;;;;;6.43;1.13;;;7.70;99.90;;;;;;5037957;28;20049;-85
2021/03/25 04:04:35;;;;;;;3.42;1.23;;;7.80;99.90;;;;;;5037535;28;20049;-86
2021/03/25 04:07:05;;;;;;;8.38;1.50;;;7.80;99.90;;;;;;5037820;28;20057;-86
2021/03/25 04:09:34;;;;;;;4.30;0.90;;;7.70;99.90;;;;;;5037704;28;20052;-86
2021/03/25 04:12:04;;;;;;;5.43;0.80;;;7.80;99.90;;;;;;5032116;28;20046;-85
2021/03/25 04:14:33;;;;;;;11.65;1.55;;;7.70;99.90;;;;;;5017878;28;20061;-85
2021/03/25 04:17:01;;;;;;;5.53;1.00;;;7.70;99.90;;;;;;5017706;28;20050;-85
2021/03/25 04:19:29;;;;;;;4.25;0.88;;;7.70;99.90;;;;;;5017300;28;20384;-86
2021/03/25 04:21:58;;;;;;;13.80;1.23;;;7.70;99.90;;;;;;5017206;28;20056;-85
2021/03/25 04:24:26;;;;;;;3.72;1.23;;;7.80;99.90;;;;;;5017174;28;20061;-85
2021/03/25 04:26:56;;;;;;;22.15;1.60;;;7.80;99.90;;;;;;5017617;28;20066;-85
2021/03/25 04:29:26;;;;;;;4.05;0.90;;;7.80;99.90;;;;;;5017598;28;20068;-85
2021/03/25 04:31:53;;;;;;;6.18;1.10;;;7.80;99.90;;;;;;5017676;28;20054;-86
2021/03/25 04:34:19;;;;;;;9.55;1.20;;;7.80;99.90;;;;;;5017184;28;20441;-85
2021/03/25 04:36:46;;;;;;;1.85;1.02;;;7.80;99.90;;;;;;5017416;28;20060;-85
2021/03/25 04:39:15;;;;;;;6.78;1.10;;;7.80;99.90;;;;;;5016799;28;20060;-85
2021/03/25 04:41:42;;;;;;;4.10;0.70;;;7.80;99.90;;;;;;5017098;28;20470;-85
2021/03/25 04:44:16;;;;;;;4.13;0.60;;;7.80;99.90;;;;;;5017078;28;20050;-85
2021/03/25 04:46:50;;;;;;;7.45;1.25;;;7.80;99.90;;;;;;5017070;28;20057;-86
2021/03/25 04:49:20;;;;;;;11.02;1.13;;;7.80;99.90;;;;;;5016857;28;20058;-86
2021/03/25 04:51:46;;;;;;;5.00;0.95;;;7.80;99.90;;;;;;5016733;28;20521;-86
2021/03/25 04:54:24;;;;;;;5.15;1.20;;;7.80;99.90;;;;;;5017108;28;20057;-85
2021/03/25 04:56:50;;;;;;;5.22;1.55;;;7.80;99.90;;;;;;5016902;28;20053;-85
2021/03/25 04:59:17;;;;;;;5.53;1.17;;;7.90;99.90;;;;;;5016530;28;20062;-86
2021/03/25 05:01:43;;;;;;;5.32;0.80;;;7.80;99.90;;;;;;5016792;28;20068;-86
2021/03/25 05:04:12;;;;;;;12.02;1.50;;;7.80;99.90;;;;;;5016606;28;20054;-86
2021/03/25 05:06:49;;;;;;;7.10;1.33;;;7.80;99.90;;;;;;5016765;28;20111;-86
2021/03/25 05:09:16;;;;;;;5.35;1.45;;;7.80;99.90;;;;;;5016406;28;20382;-86
2021/03/25 05:18:16;;;;;;;7.55;1.23;;;7.80;99.90;;;;;;5070894;22;20061;-87
2021/03/25 05:20:47;;;;;;;2.90;1.45;;;7.80;99.90;;;;;;5016460;28;20049;-85
2021/03/25 05:23:18;;;;;;;3.22;1.27;;;7.80;99.90;;;;;;5001692;28;20065;-86
2021/03/25 05:25:47;;;;;;;11.10;1.77;;;7.80;99.90;;;;;;4996608;28;20136;-85
2021/03/25 05:28:17;;;;;;;6.57;1.73;;;7.70;99.90;;;;;;4996777;28;20057;-84
2021/03/25 05:30:44;;;;;;;9.68;1.30;;;7.70;99.90;;;;;;4996493;28;20467;-85
2021/03/25 05:33:13;;;;;;;5.80;0.90;;;7.70;99.90;;;;;;4996466;28;20127;-84
2021/03/25 05:35:41;;;;;;;7.20;1.05;;;7.70;99.90;;;;;;4996479;28;20047;-86
2021/03/25 05:38:08;;;;;;;10.77;1.73;;;7.70;99.90;;;;;;4996340;28;20054;-84
2021/03/25 05:40:37;;;;;;;16.98;2.10;;;7.70;99.90;;;;;;4996445;28;20076;-87
2021/03/25 05:43:19;;;;;;;2.88;1.10;;;7.70;99.90;;;;;;4996289;28;20111;-84
2021/03/25 05:45:53;;;;;;;3.72;1.10;;;7.60;99.90;;;;;;4996575;28;20085;-85
2021/03/25 05:48:34;;;;;;;5.45;0.98;;;7.50;99.90;;;;;;4996394;28;20108;-84
2021/03/25 05:51:02;;;;;;;4.43;1.63;;;7.50;99.90;;;;;;4996269;28;20069;-84
2021/03/25 05:53:36;;;;;;;9.07;1.33;;;7.50;99.90;;;;;;4995864;28;20050;-83
2021/03/25 05:56:10;;;;;;;5.03;1.13;;;7.50;99.90;;;;;;4996362;28;20108;-84
2021/03/25 05:58:38;;;;;;;7.90;1.80;;;7.50;99.90;;;;;;4996623;28;20054;-83
2021/03/25 06:01:20;;;;;;;3.70;1.08;;;7.50;99.90;;;;;;4996378;28;20055;-82
2021/03/25 06:03:54;;;;;;;6.60;1.38;;;7.50;99.90;;;;;;4996232;28;20061;-82
2021/03/25 06:06:24;;;;;;;5.30;1.17;;;7.50;99.90;;;;;;4996268;28;20050;-82
2021/03/25 06:08:54;;;;;;;12.50;1.48;;;7.50;99.90;;;;;;4996187;28;20054;-82
2021/03/25 06:11:27;;;;;;;7.47;1.60;;;7.50;99.90;;;;;;4995736;28;20050;-82
2021/03/25 06:14:03;;;;;;;4.50;1.08;;;7.50;99.90;;;;;;4995489;28;20064;-82
2021/03/25 06:16:44;;;;;;;6.93;1.23;;;7.50;99.90;;;;;;4995766;28;20072;-82
2021/03/25 06:19:49;;;;;;;7.05;1.13;;;7.50;99.90;;;;;;4996093;28;20051;-80
2021/03/25 06:22:19;;;;;;;10.80;1.88;;;7.50;99.90;;;;;;4915303;29;20048;-81
2021/03/25 06:25:30;;;;;;;6.45;0.75;;;7.50;99.90;;;;;;4917330;29;20048;-81
2021/03/25 06:28:20;;;;;;;7.57;1.50;;;7.50;99.90;;;;;;4918744;29;20052;-83
2021/03/25 06:31:03;;;;;;;8.38;1.55;;;7.50;99.90;;;;;;4910228;29;20063;-82
2021/03/25 06:33:31;;;;;;;6.05;1.30;;;7.50;99.90;;;;;;4921172;29;20056;-82
2021/03/25 06:35:59;;;;;;;4.72;1.58;;;7.50;99.90;;;;;;4927260;29;20058;-83
2021/03/25 06:38:27;;;;;;;8.73;1.63;;;7.50;99.90;;;;;;4927079;29;20135;-83
2021/03/25 06:40:56;;;;;;;5.90;1.70;;;7.50;99.90;;;;;;4931270;29;20044;-84
2021/03/25 06:43:25;;;;;;;8.43;1.98;;;7.50;99.90;;;;;;4929590;29;20126;-83
2021/03/25 06:45:56;;;;;;;7.05;1.40;;;7.50;99.90;;;;;;4930059;29;20052;-83
2021/03/25 06:48:28;;;;;;;9.20;1.58;;;7.50;99.90;;;;;;4932415;29;20056;-84
2021/03/25 06:50:55;;;;;;;9.50;1.83;;;7.50;99.90;;;;;;4933494;29;20084;-84
2021/03/25 06:53:24;;;;;;;4.45;1.75;;;7.50;99.90;;;;;;4931548;29;20112;-84
2021/03/25 06:55:51;;;;;;;11.40;1.60;;;7.60;99.90;;;;;;4936659;29;20059;-84
2021/03/25 06:58:20;;;;;;;7.32;1.15;;;7.60;99.90;;;;;;4960151;28;20060;-84
2021/03/25 07:00:57;;;;;;;5.18;1.27;;;7.60;99.90;;;;;;5011333;28;20061;-85
2021/03/25 07:03:24;;;;;;;6.20;1.77;;;7.60;99.90;;;;;;5004702;28;20133;-84
2021/03/25 07:05:51;;;;;;;11.15;1.80;;;7.70;99.90;;;;;;4995991;28;20112;-83
2021/03/25 07:08:19;;;;;;;5.15;1.13;;;7.80;99.90;;;;;;4995068;28;20050;-82
2021/03/25 07:10:48;;;;;;;9.00;1.35;;;7.80;99.90;;;;;;4995019;28;20069;-83
2021/03/25 07:13:17;;;;;;;11.13;1.73;;;7.90;99.90;;;;;;4994643;28;20057;-84
2021/03/25 07:15:43;;;;;;;10.02;1.55;;;7.90;99.90;;;;;;4994872;28;20046;-83
2021/03/25 07:18:24;;;;;;;9.00;1.83;;;7.90;99.90;;;;;;4994375;28;20070;-82
2021/03/25 07:20:50;;;;;;;5.90;1.15;;;7.90;99.90;;;;;;4995022;28;20046;-82
2021/03/25 07:23:17;;;;;;;5.53;1.42;;;7.90;99.90;;;;;;5009519;28;20127;-81
2021/03/25 07:25:45;;;;;;;4.65;1.05;;;7.90;99.90;;;;;;5017474;28;20056;-82
2021/03/25 07:28:14;;;;;;;10.02;1.52;;;7.90;99.90;;;;;;5018540;28;20046;-83
2021/03/25 07:30:46;;;;;;;4.47;1.25;;;7.90;99.90;;;;;;5018267;28;20459;-83
2021/03/25 07:33:15;;;;;;;9.15;2.67;;;8.00;99.90;;;;;;5018603;28;20131;-82
2021/03/25 07:35:42;;;;;;;5.90;1.40;;;8.00;99.90;;;;;;5018477;28;20372;-82
2021/03/25 07:38:33;;;;;;;4.32;1.85;;;8.00;99.90;;;;;;5018209;28;20050;-82
2021/03/25 07:41:09;;;;;;;4.95;1.60;;;8.10;99.90;;;;;;5003362;28;20053;-81
2021/03/25 07:43:53;;;;;;;4.72;1.13;;;8.10;99.90;;;;;;5018240;28;20492;-84
2021/03/25 07:46:23;;;;;;;7.55;2.08;;;8.20;99.90;;;;;;5018132;28;20454;-85
2021/03/25 07:49:05;;;;;;;5.82;1.65;;;8.30;99.90;;;;;;5018073;28;20463;-84
2021/03/25 07:51:42;;;;;;;6.47;2.00;;;8.40;99.90;;;;;;5017803;28;20053;-83
2021/03/25 07:54:10;;;;;;;4.30;1.63;;;8.40;99.90;;;;;;5018022;28;20053;-84
2021/03/25 07:56:36;;;;;;;7.20;1.52;;;8.50;99.90;;;;;;5017850;28;20049;-84
2021/03/25 07:59:03;;;;;;;9.02;1.95;;;8.50;99.90;;;;;;5018154;28;20111;-83
2021/03/25 08:01:30;;;;;;;4.85;1.58;;;8.60;99.90;;;;;;5017643;28;20056;-84
2021/03/25 08:03:58;;;;;;;6.63;1.35;;;8.60;99.90;;;;;;5017433;28;20050;-83
2021/03/25 08:06:27;;;;;;;8.27;2.33;;;8.70;99.90;;;;;;5017622;28;20050;-84
2021/03/25 08:09:02;;;;;;;7.70;1.35;;;8.80;99.90;;;;;;5017645;28;20419;-85
2021/03/25 08:11:28;;;;;;;5.85;1.33;;;8.90;99.90;;;;;;5017753;28;20054;-84
2021/03/25 08:13:57;;;;;;;2.80;1.30;;;9.00;99.90;;;;;;5017571;28;20084;-83
2021/03/25 08:16:24;;;;;;;4.03;2.10;;;9.10;99.90;;;;;;5017573;28;20049;-82
2021/03/25 08:19:31;;;;;;;10.23;2.90;;;9.10;99.90;;;;;;5017438;28;20056;-82
2021/03/25 08:22:14;;;;;;;15.50;2.75;;;9.20;99.90;;;;;;5017382;28;20428;-83
2021/03/25 08:25:19;;;;;;;6.10;2.58;;;9.30;99.90;;;;;;5017445;28;20489;-82
2021/03/25 08:28:02;;;;;;;3.53;1.53;;;9.30;99.90;;;;;;4995219;28;20064;-82
2021/03/25 08:30:51;;;;;;;12.57;2.00;;;9.40;99.90;;;;;;5017669;28;20050;-81
2021/03/25 08:33:25;;;;;;;8.48;1.35;;;9.40;99.90;;;;;;5017324;28;20056;-82
2021/03/25 08:35:57;;;;;;;7.93;2.03;;;9.40;99.90;;;;;;5017266;28;20111;-83
2021/03/25 08:38:52;;;;;;;9.05;1.70;;;9.40;99.90;;;;;;5017235;28;20064;-81
2021/03/25 08:41:21;;;;;;;5.23;1.50;;;9.50;99.90;;;;;;5001854;28;20053;-81
2021/03/25 08:43:51;;;;;;;9.02;1.75;;;9.50;99.90;;;;;;5016972;28;20054;-81
2021/03/25 08:46:20;;;;;;;3.30;1.25;;;9.50;99.90;;;;;;5016855;28;20477;-81
2021/03/25 08:48:49;;;;;;;3.25;1.13;;;9.50;99.90;;;;;;5017173;28;20054;-82
2021/03/25 08:51:18;;;;;;;21.58;7.60;;;9.50;99.90;;;;;;5016712;28;20042;-79
2021/03/25 08:53:46;;;;;;;74.88;41.20;;;9.50;99.90;;;;;;5017081;28;20064;-82
2021/03/25 08:56:35;;;;;;;52.90;36.08;;;9.50;99.90;;;;;;5016841;28;20060;-81
2021/03/25 08:59:03;;;;;;;22.98;12.75;;;9.50;99.90;;;;;;5016759;28;20053;-84
2021/03/25 09:01:31;;;;;;;6.38;3.90;;;9.60;99.90;;;;;;5016503;28;20053;-82
2021/03/25 09:03:59;;;;;;;34.80;31.30;;;9.70;99.90;;;;;;5016816;28;20045;-84
2021/03/25 09:06:28;;;;;;;86.97;61.55;;;9.80;99.90;;;;;;5016626;28;20057;-84
2021/03/25 09:08:57;;;;;;;41.03;31.30;;;9.80;99.90;;;;;;5016868;28;20054;-83
2021/03/25 09:11:24;;;;;;;21.15;14.25;;;9.90;99.90;;;;;;5016268;28;20050;-81
2021/03/25 09:13:56;;;;;;;90.68;72.88;;;9.90;99.90;;;;;;4996897;28;20054;-81
2021/03/25 09:16:24;;;;;;;33.88;27.98;;;9.90;99.90;;;;;;4996609;28;20068;-80
2021/03/25 09:18:50;;;;;;;24.88;22.52;;;10.00;99.90;;;;;;4996676;28;20046;-81
2021/03/25 09:21:18;;;;;;;30.10;27.00;;;9.90;99.90;;;;;;4996767;28;20058;-80
2021/03/25 09:24:05;;;;;;;112.63;83.18;;;10.00;99.90;;;;;;4996687;28;20054;-81
2021/03/25 09:26:59;;;;;;;328.85;214.88;;;10.00;99.90;;;;;;4997068;28;20064;-82
2021/03/25 09:29:28;;;;;;;244.52;154.00;;;10.10;99.90;;;;;;4996710;28;20072;-83
2021/03/25 09:32:33;;;;;;;90.55;58.75;;;10.20;99.90;;;;;;4996592;28;20051;-80
2021/03/25 09:35:00;;;;;;;21.00;18.27;;;10.30;99.90;;;;;;4996608;28;20064;-81
2021/03/25 09:37:27;;;;;;;24.48;22.00;;;10.50;99.90;;;;;;4996558;28;20064;-82
2021/03/25 09:40:23;;;;;;;21.23;18.73;;;10.60;99.90;;;;;;4996128;28;20046;-81
2021/03/25 09:42:52;;;;;;;26.70;23.88;;;10.70;99.90;;;;;;4993897;28;20460;-83
2021/03/25 09:45:31;;;;;;;29.42;23.60;;;10.90;99.90;;;;;;4994882;28;20072;-83
2021/03/25 09:47:59;;;;;;;299.58;202.85;;;11.00;99.90;;;;;;4995767;28;20061;-83
2021/03/25 09:50:26;;;;;;;597.30;416.00;;;11.00;99.90;;;;;;4996224;28;20053;-83
2021/03/25 09:53:11;;;;;;;162.15;102.28;;;11.00;99.90;;;;;;4996189;28;20104;-83
2021/03/25 09:55:40;;;;;;;24.67;19.92;;;10.90;99.90;;;;;;4996172;28;20058;-83
2021/03/25 09:58:29;;;;;;;23.08;16.13;;;10.90;99.90;;;;;;4996143;28;20050;-83
2021/03/25 10:00:57;;;;;;;14.70;6.63;;;10.70;99.90;;;;;;4995221;28;20064;-84
2021/03/25 10:04:05;;;;;;;29.35;21.25;;;10.70;99.90;;;;;;4996068;28;20050;-84
2021/03/25 10:07:19;;;;;;;27.00;23.25;;;10.70;99.90;;;;;;4995979;28;20503;-84
2021/03/25 10:10:30;;;;;;;21.52;18.20;;;10.80;99.90;;;;;;4935814;29;20102;-83
2021/03/25 10:13:38;;;;;;;14.05;11.65;;;11.00;99.90;;;;;;4936355;29;20051;-84
2021/03/25 10:16:06;;;;;;;13.52;9.27;;;11.10;99.90;;;;;;4936015;29;20063;-84
2021/03/25 10:18:57;;;;;;;48.20;37.00;;;11.00;99.90;;;;;;4936244;29;20055;-84
2021/03/25 10:22:00;;;;;;;16.45;13.45;;;10.90;99.90;;;;;;4935979;29;20048;-83
2021/03/25 10:24:35;;;;;;;12.77;11.52;;;10.80;99.90;;;;;;4917135;29;20048;-83
2021/03/25 10:27:13;;;;;;;28.83;21.25;;;10.90;99.90;;;;;;4917017;29;20064;-83
2021/03/25 10:29:41;;;;;;;54.17;36.38;;;10.90;99.90;;;;;;4917017;29;20070;-84
2021/03/25 10:32:12;;;;;;;45.45;36.88;;;10.80;99.90;;;;;;4916922;29;20051;-83
2021/03/25 10:34:40;;;;;;;26.58;21.65;;;11.00;99.90;;;;;;4917045;29;20056;-83
2021/03/25 10:37:25;;;;;;;13.90;11.48;;;11.00;99.90;;;;;;4916720;29;20127;-82
2021/03/25 10:39:59;;;;;;;18.60;15.68;;;11.20;99.90;;;;;;4940325;28;20422;-83
2021/03/25 10:42:26;;;;;;;21.77;17.35;;;11.40;99.90;;;;;;4995343;28;20069;-83
2021/03/25 10:44:54;;;;;;;17.98;16.25;;;11.50;99.90;;;;;;4995512;28;20058;-83
2021/03/25 10:47:21;;;;;;;17.88;12.45;;;11.40;99.90;;;;;;4995379;28;20050;-83
2021/03/25 10:49:50;;;;;;;7.53;5.45;;;11.40;99.90;;;;;;4995096;28;20068;-84
2021/03/25 10:52:23;;;;;;;10.32;6.55;;;11.50;99.90;;;;;;4995116;28;20058;-83
2021/03/25 10:54:49;;;;;;;9.65;3.20;;;11.60;99.90;;;;;;4995267;28;20049;-83
2021/03/25 10:57:18;;;;;;;362.80;182.63;;;11.50;99.90;;;;;;4994948;28;20054;-83
2021/03/25 10:59:52;;;;;;;764.30;420.23;;;11.50;99.90;;;;;;4994718;28;20054;-82
2021/03/25 11:02:25;;;;;;;220.23;116.05;;;11.50;99.90;;;;;;4995229;28;20054;-83
2021/03/25 11:05:03;;;;;;;548.38;328.63;;;11.50;99.90;;;;;;4995138;28;20050;-83
2021/03/25 11:07:30;;;;;;;122.10;84.10;;;11.50;99.90;;;;;;4995084;28;20050;-83
2021/03/25 11:09:57;;;;;;;19.67;16.13;;;11.40;99.90;;;;;;4994931;28;20390;-82
2021/03/25 11:12:25;;;;;;;18.23;12.80;;;11.30;99.90;;;;;;4995107;28;20054;-80
2021/03/25 11:14:56;;;;;;;17.45;14.90;;;11.20;99.90;;;;;;4995180;28;20054;-82
2021/03/25 11:17:24;;;;;;;8.00;3.53;;;11.20;99.90;;;;;;4994657;28;20068;-82
2021/03/25 11:19:52;;;;;;;6.07;2.15;;;11.30;99.90;;;;;;4994825;28;20050;-83
2021/03/25 11:22:19;;;;;;;10.98;5.88;;;11.40;99.90;;;;;;4994976;28;20054;-82
2021/03/25 11:24:46;;;;;;;13.35;5.05;;;11.40;99.90;;;;;;4994765;28;20057;-82
2021/03/25 11:27:13;;;;;;;10.05;4.75;;;11.50;99.90;;;;;;4995027;28;20081;-82
2021/03/25 11:29:41;;;;;;;6.45;3.78;;;11.50;99.90;;;;;;4994814;28;20060;-81
2021/03/25 11:32:14;;;;;;;7.38;2.25;;;11.60;99.90;;;;;;4994876;28;20058;-82
2021/03/25 11:34:42;;;;;;;9.65;2.28;;;11.70;99.90;;;;;;4994719;28;20464;-82
2021/03/25 11:37:16;;;;;;;9.27;4.10;;;11.90;99.90;;;;;;4994888;28;20062;-82
2021/03/25 11:39:57;;;;;;;3.75;1.80;;;12.00;99.90;;;;;;4994821;28;20046;-80
2021/03/25 11:42:24;;;;;;;6.80;2.28;;;12.10;99.90;;;;;;4994765;28;20489;-82
2021/03/25 11:44:50;;;;;;;7.80;3.45;;;12.20;99.90;;;;;;4994714;28;20055;-81
2021/03/25 11:47:41;;;;;;;12.63;4.05;;;12.20;99.90;;;;;;4994701;28;20062;-82
2021/03/25 11:50:30;;;;;;;16.83;8.95;;;12.20;99.90;;;;;;4994595;28;20062;-82
2021/03/25 11:52:57;;;;;;;19.08;10.93;;;12.20;99.90;;;;;;4994498;28;20050;-82
2021/03/25 11:55:25;;;;;;;24.35;12.40;;;12.10;99.90;;;;;;4994543;28;20061;-82
2021/03/25 11:57:52;;;;;;;21.67;12.57;;;12.00;99.90;;;;;;4995024;28;20066;-83
2021/03/25 12:00:20;;;;;;;15.07;9.55;;;12.00;99.90;;;;;;4994577;28;20046;-81
2021/03/25 12:02:47;;;;;;;15.70;9.85;;;12.00;99.90;;;;;;4994449;28;20046;-83
2021/03/25 12:05:22;;;;;;;38.08;24.55;;;12.00;99.90;;;;;;4994347;28;20054;-81
2021/03/25 12:07:59;;;;;;;23.95;13.80;;;12.10;99.90;;;;;;4994623;28;20046;-83
2021/03/25 12:10:25;;;;;;;44.45;23.38;;;12.10;99.90;;;;;;4995470;28;20050;-82
2021/03/25 12:12:52;;;;;;;31.50;13.95;;;12.00;99.90;;;;;;4998338;28;20057;-83
2021/03/25 12:15:20;;;;;;;14.65;9.88;;;12.00;99.90;;;;;;4997888;28;20060;-83
2021/03/25 12:17:51;;;;;;;9.00;3.30;;;12.10;99.90;;;;;;4997842;28;20057;-83
2021/03/25 12:20:20;;;;;;;5.05;1.25;;;12.20;99.90;;;;;;4998012;28;20046;-83
2021/03/25 12:22:47;;;;;;;3.25;0.80;;;12.10;99.90;;;;;;4997516;28;20068;-83
2021/03/25 12:25:15;;;;;;;5.47;1.50;;;12.10;99.90;;;;;;4997824;28;20356;-82
2021/03/25 12:27:42;;;;;;;9.43;3.17;;;12.20;99.90;;;;;;4998017;28;20061;-82
2021/03/25 12:30:10;;;;;;;3.55;1.35;;;12.30;99.90;;;;;;4997785;28;20061;-87
2021/03/25 12:32:36;;;;;;;3.63;0.90;;;12.60;99.90;;;;;;5002186;28;20065;-90
2021/03/25 12:35:03;;;;;;;35.13;4.38;;;;;;;;;;5002196;28;20096;-87
2021/03/25 12:37:30;;;;;;;6.35;1.70;;;12.70;99.90;;;;;;4997610;28;20480;-88
2021/03/25 12:39:56;;;;;;;4.20;1.02;;;12.80;99.90;;;;;;4998230;28;20060;-92
2021/03/25 12:42:24;;;;;;;4.75;1.08;;;;;;;;;;4997874;28;20062;-87
2021/03/25 12:44:51;;;;;;;6.15;1.05;;;12.70;99.90;;;;;;4997522;28;20054;-87
2021/03/25 12:47:17;;;;;;;7.32;1.20;;;12.60;99.90;;;;;;4997381;28;20391;-87
2021/03/25 12:49:44;;;;;;;7.78;0.88;;;12.50;99.90;;;;;;4997209;28;20056;-88
2021/03/25 12:52:10;;;;;;;4.57;2.15;;;12.50;99.90;;;;;;5002305;28;20064;-87
2021/03/25 12:54:37;;;;;;;7.72;0.98;;;12.70;99.90;;;;;;5016539;28;20049;-88
2021/03/25 12:57:05;;;;;;;5.07;1.17;;;12.70;99.90;;;;;;5016633;28;20050;-88
2021/03/25 12:59:33;;;;;;;1.80;0.70;;;;;;;;;;5016913;28;20050;-87
2021/03/25 13:01:59;;;;;;;6.03;0.85;;;12.80;99.90;;;;;;5016596;28;20107;-88
2021/03/25 13:04:26;;;;;;;3.42;1.00;;;12.80;99.90;;;;;;5016530;28;20466;-88
2021/03/25 13:06:52;;;;;;;2.60;0.50;;;12.80;99.90;;;;;;5016696;28;20060;-88
2021/03/25 13:09:19;;;;;;;3.67;0.68;;;12.80;99.90;;;;;;5016529;28;20056;-88
2021/03/25 13:11:46;;;;;;;2.00;0.70;;;12.90;99.90;;;;;;5017128;28;20076;-88
2021/03/25 13:14:12;;;;;;;3.30;0.70;;;13.00;99.90;;;;;;5016046;28;20050;-87
2021/03/25 13:16:40;;;;;;;5.18;0.95;;;13.10;99.90;;;;;;4999028;28;20082;-87
2021/03/25 13:19:06;;;;;;;4.05;0.80;;;13.10;99.90;;;;;;4996891;28;20059;-87